createdAt,value
2022-11-28T00:01:21.710Z,9.85
2022-11-28T00:03:49.429Z,10.23
2022-11-28T00:06:17.082Z,9.75
2022-11-28T00:08:44.898Z,10.68
2022-11-28T00:11:12.973Z,12.45
2022-11-28T00:13:40.522Z,11.32
2022-11-28T00:16:09.309Z,8.48
2022-11-28T00:18:36.949Z,9.15
2022-11-28T00:21:08.671Z,9.52
2022-11-28T00:23:36.106Z,8.68
2022-11-28T00:26:14.537Z,10.65
2022-11-28T00:28:41.881Z,9.25
2022-11-28T00:31:13.486Z,11.18
2022-11-28T00:33:41.994Z,12.57
2022-11-28T00:36:09.890Z,11.77
2022-11-28T00:38:37.242Z,9.38
2022-11-28T00:41:06.178Z,11.98
2022-11-28T00:43:33.782Z,12.20
2022-11-28T00:46:01.176Z,11.80
2022-11-28T00:48:28.650Z,12.45
2022-11-28T00:50:56.402Z,13.88
2022-11-28T00:53:23.741Z,15.13
2022-11-28T00:55:51.048Z,11.25
2022-11-28T00:58:18.378Z,11.15
2022-11-28T01:00:45.820Z,11.25
2022-11-28T01:03:13.181Z,11.50
2022-11-28T01:05:41.683Z,11.60
2022-11-28T01:08:08.984Z,12.48
2022-11-28T01:10:40.168Z,13.00
2022-11-28T01:13:07.446Z,14.18
2022-11-28T01:15:34.721Z,10.18
2022-11-28T01:18:02.746Z,13.05
2022-11-28T01:20:30.044Z,12.10
2022-11-28T01:22:57.368Z,10.88
2022-11-28T01:25:24.778Z,9.98
2022-11-28T01:27:52.231Z,10.48
2022-11-28T01:30:19.567Z,9.70
2022-11-28T01:32:46.817Z,10.02
2022-11-28T01:35:14.128Z,11.00
2022-11-28T01:37:41.385Z,8.30
2022-11-28T01:40:09.172Z,9.10
2022-11-28T01:42:36.442Z,9.10
2022-11-28T01:45:14.796Z,7.68
2022-11-28T01:47:42.110Z,8.55
2022-11-28T01:50:09.499Z,8.05
2022-11-28T01:52:39.162Z,9.02
2022-11-28T01:55:07.233Z,8.23
2022-11-28T01:57:34.726Z,6.88
2022-11-28T02:00:05.884Z,9.80
2022-11-28T02:02:45.042Z,8.20
2022-11-28T02:05:12.855Z,7.35
2022-11-28T02:07:40.789Z,7.78
2022-11-28T02:10:09.457Z,8.32
2022-11-28T02:12:36.717Z,8.43
2022-11-28T02:15:16.329Z,7.78
2022-11-28T02:18:01.813Z,8.20
2022-11-28T02:20:38.257Z,8.10
2022-11-28T02:23:08.326Z,7.07
2022-11-28T02:25:54.059Z,7.45
2022-11-28T02:28:36.012Z,8.13
2022-11-28T02:31:03.328Z,8.55
2022-11-28T02:33:30.588Z,6.22
2022-11-28T02:36:03.940Z,7.82
2022-11-28T02:38:31.257Z,7.53
2022-11-28T02:41:04.611Z,8.68
2022-11-28T02:43:55.376Z,8.48
2022-11-28T02:46:41.643Z,7.75
2022-11-28T02:49:12.510Z,9.05
2022-11-28T02:51:44.477Z,8.00
2022-11-28T02:54:12.675Z,8.20
2022-11-28T02:56:40.033Z,8.60
2022-11-28T02:59:27.893Z,10.15
2022-11-28T03:01:55.359Z,9.35
2022-11-28T03:04:38.261Z,6.00
2022-11-28T03:07:20.757Z,9.15
2022-11-28T03:09:52.771Z,10.15
2022-11-28T03:12:43.147Z,10.25
2022-11-28T03:15:13.296Z,10.85
2022-11-28T03:17:47.255Z,10.55
2022-11-28T03:20:20.726Z,9.75
2022-11-28T03:22:48.003Z,8.75
2022-11-28T03:25:26.354Z,10.32
2022-11-28T03:28:15.376Z,11.30
2022-11-28T03:30:53.381Z,13.45
2022-11-28T03:33:22.266Z,11.02
2022-11-28T03:35:52.365Z,11.05
2022-11-28T03:38:39.864Z,13.45
2022-11-28T03:41:17.042Z,12.65
2022-11-28T03:43:47.574Z,11.57
2022-11-28T03:46:16.891Z,12.38
2022-11-28T03:48:47.064Z,16.60
2022-11-28T03:51:14.335Z,13.43
2022-11-28T03:54:04.836Z,13.43
2022-11-28T03:56:32.115Z,13.93
2022-11-28T03:59:02.437Z,15.32
2022-11-28T04:01:50.974Z,13.32
2022-11-28T04:04:27.409Z,13.93
2022-11-28T04:07:11.058Z,12.93
2022-11-28T04:09:40.711Z,13.38
2022-11-28T04:12:15.889Z,12.63
2022-11-28T04:14:48.136Z,16.00
2022-11-28T04:17:38.174Z,14.95
2022-11-28T04:20:17.698Z,14.23
2022-11-28T04:22:47.223Z,12.80
2022-11-28T04:25:16.027Z,17.33
2022-11-28T04:27:47.386Z,14.88
2022-11-28T04:30:14.740Z,15.15
2022-11-28T04:32:44.810Z,12.70
2022-11-28T04:35:14.971Z,15.68
2022-11-28T04:37:44.378Z,14.32
2022-11-28T04:40:12.640Z,13.65
2022-11-28T04:42:42.556Z,13.10
2022-11-28T04:45:18.869Z,14.35
2022-11-28T04:47:46.430Z,12.38
2022-11-28T04:50:14.064Z,10.82
2022-11-28T04:52:55.350Z,14.85
2022-11-28T04:55:39.384Z,13.65
2022-11-28T04:58:10.439Z,11.65
2022-11-28T05:00:38.369Z,13.35
2022-11-28T05:03:06.235Z,15.13
2022-11-28T05:05:41.768Z,15.65
2022-11-28T05:08:09.081Z,12.30
2022-11-28T05:10:36.429Z,11.93
2022-11-28T05:13:03.836Z,15.70
2022-11-28T05:15:31.195Z,14.60
2022-11-28T05:17:58.449Z,13.55
2022-11-28T05:20:25.773Z,15.43
2022-11-28T05:22:53.030Z,14.07
2022-11-28T05:25:20.915Z,14.23
2022-11-28T05:27:48.468Z,17.95
2022-11-28T05:30:16.074Z,18.08
2022-11-28T05:32:43.458Z,17.33
2022-11-28T05:35:10.803Z,16.45
2022-11-28T05:37:38.382Z,17.77
2022-11-28T05:40:06.202Z,14.52
2022-11-28T05:42:34.276Z,16.13
2022-11-28T05:45:01.576Z,16.02
2022-11-28T05:47:30.986Z,15.57
2022-11-28T05:49:58.328Z,14.73
2022-11-28T05:52:25.773Z,19.70
2022-11-28T05:54:53.073Z,16.42
2022-11-28T05:57:20.394Z,14.50
2022-11-28T05:59:47.699Z,18.02
2022-11-28T06:02:15.108Z,16.05
2022-11-28T06:04:43.213Z,17.05
2022-11-28T06:07:10.911Z,17.55
2022-11-28T06:09:38.467Z,18.65
2022-11-28T06:12:05.920Z,15.80
2022-11-28T06:14:33.259Z,17.17
2022-11-28T06:17:00.696Z,17.48
2022-11-28T06:19:28.062Z,16.63
2022-11-28T06:21:56.520Z,18.85
2022-11-28T06:24:23.782Z,20.67
2022-11-28T06:26:51.039Z,20.73
2022-11-28T06:29:18.343Z,19.48
2022-11-28T06:31:45.773Z,19.77
2022-11-28T06:34:13.573Z,21.30
2022-11-28T06:36:41.174Z,21.30
2022-11-28T06:39:08.611Z,18.98
2022-11-28T06:41:35.825Z,20.80
2022-11-28T06:44:03.097Z,20.48
2022-11-28T06:46:30.467Z,25.85
2022-11-28T06:48:57.862Z,22.80
2022-11-28T06:51:25.118Z,22.38
2022-11-28T06:53:52.472Z,25.55
2022-11-28T06:56:20.475Z,26.02
2022-11-28T06:58:48.199Z,32.15
2022-11-28T07:01:17.079Z,30.92
2022-11-28T07:03:44.894Z,25.92
2022-11-28T07:06:13.147Z,33.47
2022-11-28T07:08:40.914Z,29.42
2022-11-28T07:11:12.843Z,26.33
2022-11-28T07:13:40.799Z,32.67
2022-11-28T07:16:08.856Z,29.73
2022-11-28T07:18:36.235Z,26.48
2022-11-28T07:21:03.682Z,30.08
2022-11-28T07:23:31.014Z,36.38
2022-11-28T07:25:59.885Z,31.67
2022-11-28T07:28:27.776Z,35.20
2022-11-28T07:31:02.398Z,34.03
2022-11-28T07:33:30.166Z,31.40
2022-11-28T07:36:00.567Z,33.25
2022-11-28T07:38:27.954Z,32.65
2022-11-28T07:40:55.325Z,33.33
2022-11-28T07:43:22.633Z,38.90
2022-11-28T07:46:00.603Z,38.58
2022-11-28T07:48:29.195Z,34.38
2022-11-28T07:50:56.505Z,33.33
2022-11-28T07:53:23.878Z,35.40
2022-11-28T07:55:51.276Z,36.25
2022-11-28T07:58:18.695Z,37.10
2022-11-28T08:00:45.949Z,38.75
2022-11-28T08:03:13.251Z,36.33
2022-11-28T08:05:42.190Z,42.58
2022-11-28T08:08:09.496Z,40.75
2022-11-28T08:10:36.881Z,44.40
2022-11-28T08:13:04.496Z,39.60
2022-11-28T08:15:32.286Z,36.95
2022-11-28T08:17:59.652Z,38.97
2022-11-28T08:20:27.072Z,41.55
2022-11-28T08:22:54.427Z,43.00
2022-11-28T08:25:21.788Z,38.55
2022-11-28T08:27:49.035Z,43.78
2022-11-28T08:30:16.532Z,40.92
2022-11-28T08:32:43.894Z,46.17
2022-11-28T08:35:11.181Z,44.38
2022-11-28T08:37:38.461Z,45.03
2022-11-28T08:40:06.257Z,50.58
2022-11-28T08:42:33.526Z,47.08
2022-11-28T08:45:00.860Z,49.33
2022-11-28T08:47:28.178Z,42.05
2022-11-28T08:49:55.536Z,47.38
2022-11-28T08:52:23.050Z,50.78
2022-11-28T08:54:50.363Z,48.90
2022-11-28T08:57:17.631Z,52.33
2022-11-28T08:59:45.569Z,52.47
2022-11-28T09:02:13.090Z,58.58
2022-11-28T09:04:40.408Z,53.47
2022-11-28T09:07:07.690Z,60.88
2022-11-28T09:09:34.913Z,51.22
2022-11-28T09:12:02.468Z,67.63
2022-11-28T09:14:29.919Z,59.75
2022-11-28T09:16:57.361Z,65.57
2022-11-28T09:19:25.131Z,62.17
2022-11-28T09:21:57.524Z,58.17
2022-11-28T09:24:25.447Z,69.10
2022-11-28T09:26:52.805Z,75.13
2022-11-28T09:29:20.085Z,48.83
2022-11-28T09:31:47.831Z,58.20
2022-11-28T09:34:15.303Z,57.13
2022-11-28T09:36:42.831Z,52.28
2022-11-28T09:39:10.345Z,56.10
2022-11-28T09:41:50.334Z,58.65
2022-11-28T09:44:17.628Z,57.08
2022-11-28T09:46:45.387Z,56.08
2022-11-28T09:49:22.999Z,61.30
2022-11-28T09:51:53.800Z,55.55
2022-11-28T09:54:24.160Z,62.37
2022-11-28T09:56:51.545Z,60.17
2022-11-28T09:59:29.718Z,55.90
2022-11-28T10:01:56.941Z,61.40
2022-11-28T10:04:43.220Z,59.58
2022-11-28T10:07:20.405Z,61.13
2022-11-28T10:09:47.719Z,57.13
2022-11-28T10:12:15.071Z,56.85
2022-11-28T10:15:01.224Z,62.90
2022-11-28T10:17:34.269Z,56.45
2022-11-28T10:20:04.011Z,56.87
2022-11-28T10:22:46.249Z,64.70
2022-11-28T10:25:17.593Z,63.55
2022-11-28T10:27:45.390Z,58.28
2022-11-28T10:30:33.970Z,55.53
2022-11-28T10:33:10.534Z,54.00
2022-11-28T10:35:43.274Z,47.08
2022-11-28T10:38:14.617Z,52.42
2022-11-28T10:40:45.923Z,53.58
2022-11-28T10:43:19.964Z,49.28
2022-11-28T10:45:52.106Z,52.53
2022-11-28T10:48:40.816Z,45.50
2022-11-28T10:51:26.942Z,51.03
2022-11-28T10:54:03.328Z,47.28
2022-11-28T10:56:38.184Z,47.17
2022-11-28T10:59:21.983Z,49.40
2022-11-28T11:01:50.481Z,45.28
2022-11-28T11:04:29.156Z,43.47
2022-11-28T11:07:20.123Z,41.15
2022-11-28T11:09:49.278Z,47.03
2022-11-28T11:12:21.118Z,34.13
2022-11-28T11:14:48.456Z,31.30
2022-11-28T11:17:35.499Z,34.40
2022-11-28T11:20:03.383Z,32.17
2022-11-28T11:22:32.432Z,38.60
2022-11-28T11:25:07.961Z,33.53
2022-11-28T11:27:36.120Z,31.05
2022-11-28T11:30:16.483Z,34.10
2022-11-28T11:32:51.434Z,32.42
2022-11-28T11:35:21.984Z,26.73
2022-11-28T11:37:49.358Z,27.97
2022-11-28T11:40:22.733Z,29.42
2022-11-28T11:43:00.308Z,31.42
2022-11-28T11:45:29.942Z,33.42
2022-11-28T11:47:57.539Z,31.17
2022-11-28T11:50:26.085Z,37.80
2022-11-28T11:53:11.689Z,38.63
2022-11-28T11:55:50.227Z,36.50
2022-11-28T11:58:20.585Z,42.40
2022-11-28T12:00:47.976Z,47.10
2022-11-28T12:03:21.505Z,40.73
2022-11-28T12:06:14.332Z,40.08
2022-11-28T12:08:41.525Z,33.08
2022-11-28T12:11:29.641Z,36.92
2022-11-28T12:13:59.696Z,33.67
2022-11-28T12:16:39.254Z,36.63
2022-11-28T12:19:07.006Z,35.47
2022-11-28T12:21:53.063Z,37.28
2022-11-28T12:24:29.825Z,32.30
2022-11-28T12:26:57.126Z,34.67
2022-11-28T12:29:27.852Z,32.93
2022-11-28T12:32:01.069Z,37.25
2022-11-28T12:34:34.430Z,35.55
2022-11-28T12:37:10.627Z,30.75
2022-11-28T12:39:53.351Z,33.97
2022-11-28T12:42:29.244Z,38.53
2022-11-28T12:45:19.492Z,40.95
2022-11-28T12:47:52.882Z,38.70
2022-11-28T12:50:39.626Z,40.88
2022-11-28T12:53:07.737Z,37.80
2022-11-28T12:55:41.799Z,35.93
2022-11-28T12:58:17.253Z,36.20
2022-11-28T13:00:53.652Z,37.17
2022-11-28T13:03:33.326Z,34.05
2022-11-28T13:06:09.147Z,35.15
2022-11-28T13:08:49.629Z,36.50
2022-11-28T13:11:30.229Z,36.38
2022-11-28T13:14:16.874Z,35.47
2022-11-28T13:16:44.467Z,40.72
2022-11-28T13:19:16.813Z,41.30
2022-11-28T13:21:50.251Z,37.53
2022-11-28T13:24:27.762Z,39.10
2022-11-28T13:27:17.873Z,42.05
2022-11-28T13:29:45.428Z,42.45
2022-11-28T13:32:21.303Z,47.63
2022-11-28T13:34:49.531Z,42.57
2022-11-28T13:40:13.279Z,39.90
2022-11-28T13:43:07.749Z,50.30
2022-11-28T13:45:39.319Z,40.47
2022-11-28T13:48:49.871Z,45.10
2022-11-28T13:51:19.977Z,39.85
2022-11-28T13:54:11.711Z,37.72
2022-11-28T13:56:39.913Z,46.35
2022-11-28T13:59:16.279Z,43.08
2022-11-28T14:01:45.358Z,62.50
2022-11-28T14:04:13.814Z,44.95
2022-11-28T14:06:41.150Z,39.58
2022-11-28T14:09:16.954Z,46.10
2022-11-28T14:12:08.680Z,47.78
2022-11-28T14:14:36.007Z,44.47
2022-11-28T14:17:03.397Z,43.10
2022-11-28T14:19:30.772Z,50.63
2022-11-28T14:22:07.846Z,42.03
2022-11-28T14:24:50.042Z,43.08
2022-11-28T14:27:21.071Z,42.37
2022-11-28T14:29:51.090Z,37.47
2022-11-28T14:32:39.862Z,41.75
2022-11-28T14:35:13.019Z,44.47
2022-11-28T14:37:53.054Z,42.25
2022-11-28T14:40:39.349Z,39.50
2022-11-28T14:43:25.039Z,44.42
2022-11-28T14:45:53.057Z,47.60
2022-11-28T14:48:20.692Z,45.03
2022-11-28T14:50:49.534Z,55.03
2022-11-28T14:53:38.180Z,47.07
2022-11-28T14:56:25.795Z,63.67
2022-11-28T14:58:56.219Z,50.67
2022-11-28T15:01:43.768Z,51.70
2022-11-28T15:04:20.227Z,46.92
2022-11-28T15:06:50.328Z,41.90
2022-11-28T15:09:22.302Z,47.28
2022-11-28T15:12:05.005Z,48.33
2022-11-28T15:14:33.971Z,60.63
2022-11-28T15:17:04.381Z,53.08
2022-11-28T15:19:34.219Z,54.47
2022-11-28T15:22:01.767Z,51.90
2022-11-28T15:24:33.688Z,51.97
2022-11-28T15:27:07.144Z,38.92
2022-11-28T15:29:35.353Z,52.60
2022-11-28T15:32:03.610Z,49.80
2022-11-28T15:34:36.350Z,41.05
2022-11-28T15:37:07.360Z,48.83
2022-11-28T15:39:36.965Z,49.28
2022-11-28T15:42:05.378Z,48.03
2022-11-28T15:44:32.946Z,52.50
2022-11-28T15:47:00.562Z,51.38
2022-11-28T15:49:30.474Z,48.33
2022-11-28T15:51:59.836Z,49.10
2022-11-28T15:54:33.055Z,55.20
2022-11-28T15:57:00.960Z,52.40
2022-11-28T15:59:29.057Z,53.88
2022-11-28T16:01:59.456Z,54.30
2022-11-28T16:04:27.122Z,47.47
2022-11-28T16:06:56.013Z,45.08
2022-11-28T16:09:36.079Z,52.80
2022-11-28T16:12:04.795Z,58.63
2022-11-28T16:14:33.667Z,52.50
2022-11-28T16:17:02.710Z,47.60
2022-11-28T16:19:32.767Z,48.85
2022-11-28T16:22:19.640Z,54.80
2022-11-28T16:24:48.305Z,53.45
2022-11-28T16:27:34.548Z,51.75
2022-11-28T16:30:02.589Z,51.97
2022-11-28T16:32:40.521Z,53.03
2022-11-28T16:35:12.338Z,53.43
2022-11-28T16:37:40.190Z,45.60
2022-11-28T16:40:13.897Z,47.13
2022-11-28T16:42:41.393Z,49.28
2022-11-28T16:45:10.480Z,50.35
2022-11-28T16:47:38.312Z,48.17
2022-11-28T16:50:16.068Z,46.72
2022-11-28T16:52:47.917Z,46.17
2022-11-28T16:55:31.709Z,51.72
2022-11-28T16:58:07.438Z,49.88
2022-11-28T17:00:35.363Z,43.90
2022-11-28T17:03:03.444Z,50.20
2022-11-28T17:05:31.108Z,47.58
2022-11-28T17:07:58.539Z,48.08
2022-11-28T17:10:26.022Z,45.75
2022-11-28T17:12:53.503Z,46.27
2022-11-28T17:15:24.625Z,48.63
2022-11-28T17:17:52.333Z,47.38
2022-11-28T17:20:19.683Z,47.65
2022-11-28T17:22:48.427Z,45.50
2022-11-28T17:25:20.121Z,47.07
2022-11-28T17:27:52.727Z,49.50
2022-11-28T17:30:20.270Z,44.95
2022-11-28T17:32:48.054Z,39.60
2022-11-28T17:35:18.976Z,43.33
2022-11-28T17:37:46.269Z,53.77
2022-11-28T17:40:32.474Z,43.95
2022-11-28T17:43:00.070Z,45.55
2022-11-28T17:45:29.691Z,42.45
2022-11-28T17:47:57.638Z,44.80
2022-11-28T17:50:25.089Z,46.70
2022-11-28T17:52:52.811Z,42.00
2022-11-28T17:55:20.771Z,45.97
2022-11-28T17:57:48.236Z,43.50
2022-11-28T18:00:16.785Z,40.58
2022-11-28T18:02:45.235Z,45.40
2022-11-28T18:05:12.851Z,47.72
2022-11-28T18:07:40.638Z,46.75
2022-11-28T18:10:11.534Z,53.17
2022-11-28T18:12:39.532Z,47.92
2022-11-28T18:15:10.271Z,41.90
2022-11-28T18:17:38.197Z,45.47
2022-11-28T18:20:05.872Z,44.63
2022-11-28T18:22:33.153Z,42.72
2022-11-28T18:25:01.037Z,43.30
2022-11-28T18:27:28.330Z,43.83
2022-11-28T18:29:55.676Z,46.55
2022-11-28T18:32:23.671Z,47.67
2022-11-28T18:34:51.205Z,47.45
2022-11-28T18:37:18.706Z,42.78
2022-11-28T18:39:46.397Z,41.67
2022-11-28T18:42:13.865Z,45.83
2022-11-28T18:44:41.137Z,48.45
2022-11-28T18:47:11.290Z,62.13
2022-11-28T18:49:38.617Z,48.22
2022-11-28T18:52:06.060Z,73.77
2022-11-28T18:54:33.440Z,95.07
2022-11-28T18:57:01.241Z,112.43
2022-11-28T18:59:28.811Z,106.10
2022-11-28T19:01:56.248Z,110.55
2022-11-28T19:04:23.640Z,126.82
2022-11-28T19:06:51.279Z,116.25
2022-11-28T19:09:22.259Z,139.27
2022-11-28T19:11:49.647Z,99.30
2022-11-28T19:14:19.751Z,126.32
2022-11-28T19:16:49.285Z,117.78
2022-11-28T19:19:18.205Z,78.05
2022-11-28T19:21:48.244Z,105.60
2022-11-28T19:24:15.629Z,132.18
2022-11-28T19:26:42.914Z,85.05
2022-11-28T19:29:10.464Z,112.17
2022-11-28T19:31:39.286Z,108.78
2022-11-28T19:34:14.665Z,94.03
2022-11-28T19:36:45.948Z,191.10
2022-11-28T19:39:17.756Z,182.13
2022-11-28T19:41:45.750Z,77.53
2022-11-28T19:44:13.672Z,94.57
2022-11-28T19:46:41.464Z,71.22
2022-11-28T19:49:09.336Z,78.85
2022-11-28T19:51:36.635Z,72.43
2022-11-28T19:54:04.322Z,64.35
2022-11-28T19:56:33.757Z,72.88
2022-11-28T19:59:01.254Z,75.13
2022-11-28T20:01:28.898Z,67.40
2022-11-28T20:03:58.801Z,83.45
2022-11-28T20:06:27.685Z,72.68
2022-11-28T20:08:55.932Z,77.68
2022-11-28T20:11:24.318Z,76.43
2022-11-28T20:13:56.318Z,83.20
2022-11-28T20:16:23.887Z,76.82
2022-11-28T20:18:52.144Z,74.07
2022-11-28T20:21:20.205Z,79.72
2022-11-28T20:23:49.718Z,71.15
2022-11-28T20:26:17.968Z,72.57
2022-11-28T20:28:46.008Z,80.22
2022-11-28T20:31:21.215Z,81.50
2022-11-28T20:33:49.387Z,77.00
2022-11-28T20:36:20.816Z,82.68
2022-11-28T20:38:48.461Z,90.65
2022-11-28T20:41:16.740Z,84.43
2022-11-28T20:43:44.328Z,85.77
2022-11-28T20:46:13.363Z,82.50
2022-11-28T20:48:40.735Z,84.07
2022-11-28T20:51:09.029Z,88.80
2022-11-28T20:53:37.772Z,86.65
2022-11-28T20:56:06.437Z,75.83
2022-11-28T20:58:34.098Z,89.00
2022-11-28T21:01:01.396Z,78.78
2022-11-28T21:03:28.837Z,78.00
2022-11-28T21:06:00.836Z,80.45
2022-11-28T21:08:31.383Z,92.80
2022-11-28T21:10:58.696Z,82.53
2022-11-28T21:13:26.037Z,90.95
2022-11-28T21:15:53.635Z,82.50
2022-11-28T21:18:20.996Z,79.30
2022-11-28T21:20:48.637Z,89.65
2022-11-28T21:23:17.229Z,83.53
2022-11-28T21:25:44.817Z,81.40
2022-11-28T21:28:12.394Z,85.53
2022-11-28T21:30:46.837Z,83.63
2022-11-28T21:33:14.286Z,80.43
2022-11-28T21:35:41.815Z,85.25
2022-11-28T21:38:09.184Z,93.45
2022-11-28T21:40:36.509Z,82.97
2022-11-28T21:43:03.891Z,87.25
2022-11-28T21:45:31.248Z,91.30
2022-11-28T21:47:58.594Z,85.97
2022-11-28T21:50:25.894Z,105.90
2022-11-28T21:52:53.721Z,81.47
2022-11-28T21:55:21.884Z,80.65
2022-11-28T21:57:49.470Z,78.20
2022-11-28T22:00:45.696Z,85.70
2022-11-28T22:03:09.389Z,75.25
2022-11-28T22:05:39.961Z,79.38
2022-11-28T22:08:07.332Z,76.13
2022-11-28T22:10:34.638Z,88.10
2022-11-28T22:13:02.770Z,90.97
2022-11-28T22:15:30.105Z,89.38
2022-11-28T22:17:57.378Z,84.00
2022-11-28T22:20:24.669Z,86.97
2022-11-28T22:22:52.006Z,85.68
2022-11-28T22:25:19.306Z,85.10
2022-11-28T22:27:46.998Z,79.43
2022-11-28T22:30:15.046Z,72.95
2022-11-28T22:32:42.588Z,72.72
2022-11-28T22:35:10.114Z,65.23
2022-11-28T22:37:38.369Z,72.53
2022-11-28T22:40:06.118Z,65.72
2022-11-28T22:42:33.482Z,58.85
2022-11-28T22:45:00.858Z,59.00
2022-11-28T22:47:28.202Z,55.03
2022-11-28T22:49:55.596Z,57.88
2022-11-28T22:52:23.233Z,54.13
2022-11-28T22:54:50.866Z,52.45
2022-11-28T22:57:19.137Z,66.38
2022-11-28T22:59:46.385Z,52.93
2022-11-28T23:02:14.129Z,52.53
2022-11-28T23:04:41.745Z,51.17
2022-11-28T23:07:09.511Z,59.22
2022-11-28T23:09:36.911Z,53.55
2022-11-28T23:12:04.200Z,58.47
2022-11-28T23:14:31.819Z,45.35
2022-11-28T23:16:59.511Z,50.28
2022-11-28T23:19:27.046Z,43.65
2022-11-28T23:21:56.035Z,58.53
2022-11-28T23:24:23.792Z,258.90
2022-11-28T23:26:51.797Z,56.42
2022-11-28T23:29:19.706Z,46.30
2022-11-28T23:31:47.495Z,42.83
2022-11-28T23:34:15.113Z,50.72
2022-11-28T23:36:44.642Z,52.70
2022-11-28T23:39:13.498Z,51.63
2022-11-28T23:41:41.237Z,37.70
2022-11-28T23:44:08.521Z,46.35
2022-11-28T23:46:36.274Z,81.68
2022-11-28T23:49:05.394Z,80.00
2022-11-28T23:51:33.101Z,86.53
2022-11-28T23:54:00.488Z,51.75
2022-11-28T23:56:29.107Z,47.20
2022-11-28T23:58:56.835Z,51.88
